Time;durP1;ratioP1;P1;durP2;ratioP2;P2;SDS_P1;SDS_P2;PMS_P1;PMS_P2;Temp;Humidity;BMP_temperature;BMP_pressure;BME280_temperature;BME280_humidity;BME280_pressure;Samples;Min_cycle;Max_cycle;Signal;HPM_P1;HPM_P2
2021/07/12 00:00:51;;;;;;;2.77;2.33;;;;;;;16.91;67.80;101527.91;5069221;28;20409;-68
2021/07/12 00:03:19;;;;;;;2.70;2.10;;;;;;;16.87;67.07;101515.59;5069681;28;20277;-68
2021/07/12 00:05:47;;;;;;;2.67;2.10;;;;;;;16.95;67.30;101533.94;5057316;28;20216;-67
2021/07/12 00:08:16;;;;;;;2.63;2.40;;;;;;;16.61;66.98;101470.69;5067975;28;20208;-67
2021/07/12 00:10:44;;;;;;;2.63;2.40;;;;;;;16.94;67.02;101526.78;5070357;28;20205;-67
2021/07/12 00:13:12;;;;;;;8.40;2.30;;;;;;;16.95;66.29;101529.38;5070471;28;20696;-67
2021/07/12 00:15:40;;;;;;;2.70;2.47;;;;;;;16.96;66.97;101531.09;5070129;28;20201;-67
2021/07/12 00:18:10;;;;;;;2.83;2.33;;;;;;;16.91;66.95;101530.63;5070580;28;20612;-67
2021/07/12 00:20:38;;;;;;;2.60;2.20;;;;;;;16.81;67.86;101529.63;5070131;28;20502;-68
2021/07/12 00:23:06;;;;;;;5.80;2.13;;;;;;;16.74;67.92;101531.13;5064954;28;20205;-68
2021/07/12 00:25:34;;;;;;;2.47;2.27;;;;;;;16.68;68.31;101518.06;5069860;28;20209;-68
2021/07/12 00:28:03;;;;;;;3.07;2.23;;;;;;;16.70;68.19;101530.50;5070371;28;20201;-68
2021/07/12 00:30:31;;;;;;;2.77;2.13;;;;;;;16.69;68.38;101527.94;5069923;28;20205;-68
2021/07/12 00:32:59;;;;;;;2.47;2.27;;;;;;;16.69;68.34;101528.78;5070014;28;20274;-68
2021/07/12 00:35:29;;;;;;;2.57;2.37;;;;;;;16.74;67.74;101541.97;5070486;28;20201;-68
2021/07/12 00:37:57;;;;;;;3.37;2.43;;;;;;;16.72;68.21;101541.25;5063016;28;20672;-68
2021/07/12 00:40:29;;;;;;;4.53;2.40;;;;;;;16.72;67.60;101552.09;5061283;28;20239;-68
2021/07/12 00:42:58;;;;;;;2.47;2.27;;;;;;;16.66;68.50;101547.16;5070202;28;20555;-69
2021/07/12 00:45:30;;;;;;;2.77;2.23;;;;;;;16.61;68.55;101549.34;5068823;28;20208;-68
2021/07/12 00:48:00;;;;;;;4.17;2.20;;;;;;;16.59;68.60;101549.47;5068740;28;20190;-69
2021/07/12 00:50:32;;;;;;;2.43;2.23;;;;;;;16.59;68.27;101551.31;5068647;28;20513;-69
2021/07/12 00:53:02;;;;;;;6.70;2.30;;;;;;;16.61;67.28;101543.94;5069705;28;20603;-69
2021/07/12 00:55:34;;;;;;;3.53;2.30;;;;;;;16.61;67.33;101554.78;5067208;28;20197;-69
2021/07/12 00:58:06;;;;;;;3.33;2.30;;;;;;;16.58;68.03;101557.75;5068585;28;20206;-68
2021/07/12 01:00:36;;;;;;;2.93;2.30;;;;;;;16.55;67.51;101548.00;5067813;28;20674;-68
2021/07/12 01:03:06;;;;;;;2.43;2.20;;;;;;;16.52;67.68;101547.34;5048987;28;20206;-67
2021/07/12 01:05:39;;;;;;;3.90;2.43;;;;;;;16.50;68.27;101546.63;5049107;28;20621;-67
2021/07/12 01:08:07;;;;;;;3.23;2.47;;;;;;;16.46;68.40;101546.88;5049233;28;20232;-68
2021/07/12 01:10:46;;;;;;;3.53;2.40;;;;;;;16.41;67.91;101551.78;5047949;28;20205;-68
2021/07/12 01:13:31;;;;;;;3.00;2.27;;;;;;;16.33;69.14;101548.84;5033174;28;20209;-68
2021/07/12 01:16:10;;;;;;;3.13;2.57;;;;;;;16.30;68.59;101549.09;5053127;28;20208;-68
2021/07/12 01:18:51;;;;;;;5.57;2.57;;;;;;;16.28;68.38;101555.63;5051682;28;20300;-68
2021/07/12 01:21:50;;;;;;;3.70;2.30;;;;;;;16.27;68.57;101554.75;5062689;28;20208;-68
2021/07/12 01:25:02;;;;;;;2.60;2.40;;;;;;;16.24;68.82;101565.84;5049140;28;20546;-68
2021/07/12 01:27:54;;;;;;;4.50;2.03;;;;;;;16.17;69.00;101564.56;5048785;28;20205;-67
2021/07/12 01:30:31;;;;;;;3.30;2.40;;;;;;;16.14;69.45;101559.38;5037089;28;20194;-68
2021/07/12 01:33:10;;;;;;;3.17;2.70;;;;;;;16.10;69.57;101566.91;5047044;28;20720;-68
2021/07/12 01:35:54;;;;;;;4.70;2.50;;;;;;;15.80;69.53;101518.66;5055431;28;20201;-68
2021/07/12 01:38:37;;;;;;;4.43;2.40;;;;;;;16.03;69.95;101564.78;5063282;28;21633;-68
2021/07/12 01:41:16;;;;;;;2.60;2.37;;;;;;;16.01;69.57;101569.47;5048667;28;20637;-68
2021/07/12 01:44:00;;;;;;;2.60;2.20;;;;;;;15.91;68.97;101549.47;5060178;28;20206;-68
2021/07/12 01:46:33;;;;;;;3.10;2.30;;;;;;;16.03;68.68;101570.22;5063006;28;20201;-67
2021/07/12 01:49:08;;;;;;;6.67;2.40;;;;;;;16.05;67.91;101570.94;5044743;28;20199;-69
2021/07/12 01:51:45;;;;;;;4.77;2.30;;;;;;;16.06;68.40;101561.84;5043789;28;20632;-68
2021/07/12 01:54:22;;;;;;;2.93;2.30;;;;;;;16.10;67.55;101568.75;5032932;28;20250;-68
2021/07/12 01:56:58;;;;;;;2.30;2.10;;;;;;;16.11;67.95;101570.47;5032417;28;20692;-68
2021/07/12 01:59:38;;;;;;;5.73;2.23;;;;;;;16.11;68.20;101567.75;5032768;28;20203;-68
2021/07/12 02:02:12;;;;;;;3.60;2.60;;;;;;;16.07;67.61;101564.44;5049428;28;20737;-68
2021/07/12 02:04:52;;;;;;;5.57;2.70;;;;;;;16.05;67.70;101565.53;5033636;28;20627;-68
2021/07/12 02:07:21;;;;;;;2.57;2.20;;;;;;;16.00;67.77;101563.19;5045909;28;20194;-68
2021/07/12 02:09:50;;;;;;;4.67;2.20;;;;;;;15.69;67.69;101509.66;5041127;28;20579;-68
2021/07/12 02:12:20;;;;;;;3.87;2.40;;;;;;;15.87;67.83;101534.44;5035332;28;20222;-68
2021/07/12 02:14:52;;;;;;;2.37;2.03;;;;;;;16.02;67.87;101563.94;5031862;28;20853;-68
2021/07/12 02:17:23;;;;;;;4.17;2.50;;;;;;;16.07;67.84;101563.56;5038264;28;20201;-68
2021/07/12 02:20:08;;;;;;;4.27;2.20;;;;;;;16.10;67.65;101564.19;5030886;28;20214;-69
2021/07/12 02:22:38;;;;;;;3.47;2.43;;;;;;;16.12;67.77;101558.66;5034175;28;20208;-68
2021/07/12 02:25:16;;;;;;;3.37;2.53;;;;;;;16.07;67.61;101556.28;5033145;28;20209;-69
2021/07/12 02:27:47;;;;;;;4.73;2.40;;;;;;;16.08;68.22;101557.16;5031967;28;20201;-68
2021/07/12 02:30:18;;;;;;;3.90;2.70;;;;;;;15.99;68.89;101556.03;5030656;28;20550;-68
2021/07/12 02:32:48;;;;;;;3.47;2.33;;;;;;;15.96;68.19;101559.00;5035246;28;20268;-69
2021/07/12 02:35:18;;;;;;;2.37;2.17;;;;;;;15.97;68.04;101562.56;5031799;28;20257;-69
2021/07/12 02:37:49;;;;;;;2.80;2.50;;;;;;;16.01;68.39;101561.34;5033761;28;20292;-68
2021/07/12 02:40:20;;;;;;;2.50;2.20;;;;;;;16.08;68.98;101565.28;5030616;28;20218;-68
2021/07/12 02:42:52;;;;;;;3.73;2.47;;;;;;;16.37;69.57;101558.44;5056491;28;20201;-67
2021/07/12 02:45:24;;;;;;;3.37;2.30;;;;;;;16.80;70.03;101556.88;5031600;28;20214;-67
2021/07/12 02:47:54;;;;;;;2.63;2.27;;;;;;;17.29;70.55;101557.31;5033560;28;20198;-68
2021/07/12 02:50:27;;;;;;;3.87;2.23;;;;;;;17.83;69.73;101552.84;5030413;28;20199;-68
2021/07/12 02:53:02;;;;;;;2.20;2.00;;;;;;;18.34;69.50;101525.69;5033664;28;20201;-68
2021/07/12 02:55:31;;;;;;;7.20;2.20;;;;;;;19.18;67.54;101548.13;5039315;28;20724;-69
2021/07/12 02:57:59;;;;;;;2.00;1.90;;;;;;;19.79;65.73;101543.34;5032813;28;20317;-69
2021/07/12 03:00:27;;;;;;;2.43;1.70;;;;;;;20.40;63.91;101548.44;5031808;28;20846;-69
2021/07/12 03:02:56;;;;;;;1.80;1.70;;;;;;;20.86;61.85;101548.59;5031252;28;20544;-69
2021/07/12 03:05:25;;;;;;;2.10;1.90;;;;;;;21.12;59.99;101555.03;5033072;28;20191;-69
2021/07/12 03:08:03;;;;;;;3.23;2.17;;;;;;;21.14;58.77;101563.09;5038718;28;20324;-69
2021/07/12 03:10:37;;;;;;;2.20;2.00;;;;;;;21.13;58.69;101566.84;5050572;28;20679;-69
2021/07/12 03:13:08;;;;;;;2.33;2.00;;;;;;;21.20;59.45;101574.28;5035922;28;20248;-69
2021/07/12 03:15:40;;;;;;;2.00;1.90;;;;;;;21.26;59.46;101570.97;5041201;28;20720;-69
2021/07/12 03:18:28;;;;;;;2.57;1.83;;;;;;;21.29;58.41;101562.44;5049940;28;20205;-69
2021/07/12 03:21:02;;;;;;;2.40;2.03;;;;;;;21.07;58.75;101562.81;5047540;28;20219;-69
2021/07/12 03:23:36;;;;;;;1.80;1.70;;;;;;;20.71;59.13;101573.63;5044131;28;20206;-69
2021/07/12 03:26:09;;;;;;;2.20;2.00;;;;;;;20.47;59.92;101570.53;5061493;28;20213;-69
2021/07/12 03:28:39;;;;;;;1.83;1.73;;;;;;;20.00;59.63;101528.69;5042896;28;20205;-69
2021/07/12 03:31:10;;;;;;;2.33;1.80;;;;;;;20.11;60.03;101570.28;5037997;28;20205;-69
2021/07/12 03:33:42;;;;;;;1.87;1.77;;;;;;;20.02;60.82;101571.19;5042970;28;20272;-69
2021/07/12 03:36:13;;;;;;;3.67;1.80;;;;;;;19.92;61.89;101567.59;5039667;28;20221;-69
2021/07/12 03:38:41;;;;;;;7.90;2.50;;;;;;;19.67;62.70;101566.31;5041186;28;20234;-69
2021/07/12 03:41:11;;;;;;;1.80;1.70;;;;;;;19.60;63.12;101572.47;5038621;28;20210;-70
2021/07/12 03:43:40;;;;;;;2.67;1.83;;;;;;;19.40;63.26;101572.41;5041726;28;20557;-66
2021/07/12 03:46:10;;;;;;;2.13;1.93;;;;;;;19.15;63.54;101573.78;5046561;28;20194;-69
2021/07/12 03:48:44;;;;;;;2.27;1.80;;;;;;;19.13;64.07;101588.53;5043246;28;20665;-69
2021/07/12 03:51:21;;;;;;;2.50;2.03;;;;;;;18.86;64.81;101561.94;5036305;28;20227;-69
2021/07/12 03:53:53;;;;;;;2.10;1.90;;;;;;;18.74;65.32;101546.69;5050726;28;20210;-69
2021/07/12 03:56:22;;;;;;;2.23;1.97;;;;;;;18.91;66.02;101579.56;5037293;28;20213;-69
2021/07/12 03:58:50;;;;;;;3.07;2.00;;;;;;;19.03;65.96;101582.19;5034176;28;20202;-68
2021/07/12 04:01:21;;;;;;;2.33;2.10;;;;;;;19.10;66.40;101584.22;5061881;28;20209;-68
2021/07/12 04:03:52;;;;;;;2.20;2.00;;;;;;;19.22;66.11;101579.53;5040671;28;20202;-68
2021/07/12 04:06:22;;;;;;;5.87;2.10;;;;;;;19.31;66.37;101584.16;5039787;28;20235;-68
2021/07/12 04:08:50;;;;;;;2.20;2.00;;;;;;;19.36;66.06;101584.59;5036932;28;20225;-68
2021/07/12 04:11:21;;;;;;;2.57;2.10;;;;;;;19.41;66.25;101587.75;5043931;28;20546;-69
2021/07/12 04:13:49;;;;;;;2.17;1.97;;;;;;;19.53;65.95;101578.47;5037177;28;20277;-68
2021/07/12 04:16:18;;;;;;;1.93;1.80;;;;;;;19.69;65.47;101577.94;5038298;28;20285;-69
2021/07/12 04:18:46;;;;;;;2.10;1.90;;;;;;;19.85;65.44;101580.94;5047687;28;20229;-68
2021/07/12 04:21:14;;;;;;;3.47;1.80;;;;;;;19.98;65.97;101582.53;5044656;28;20187;-69
2021/07/12 04:23:44;;;;;;;2.27;2.00;;;;;;;20.05;65.94;101581.78;5043078;28;20297;-68
2021/07/12 04:26:12;;;;;;;2.27;2.07;;;;;;;20.07;66.16;101579.78;5036703;28;20206;-68
2021/07/12 04:28:40;;;;;;;2.57;2.07;;;;;;;20.08;66.35;101576.03;5033767;28;20277;-69
2021/07/12 04:31:08;;;;;;;3.50;2.13;;;;;;;20.13;66.25;101576.47;5034017;28;20190;-68
2021/07/12 04:33:37;;;;;;;1.90;1.70;;;;;;;20.12;66.47;101572.00;5041553;28;20248;-69
2021/07/12 04:36:05;;;;;;;2.30;2.10;;;;;;;20.16;66.98;101578.91;5043757;28;20692;-69
2021/07/12 04:38:35;;;;;;;2.33;2.13;;;;;;;20.12;66.92;101571.16;5031497;28;20792;-67
2021/07/12 04:41:04;;;;;;;2.60;1.80;;;;;;;20.16;66.29;101575.31;5041962;28;20233;-68
2021/07/12 04:43:33;;;;;;;1.83;1.73;;;;;;;20.25;65.44;101576.31;5043441;28;20225;-68
2021/07/12 04:46:01;;;;;;;1.97;1.70;;;;;;;20.25;66.03;101577.19;5040625;28;20198;-68
2021/07/12 04:48:32;;;;;;;1.80;1.50;;;;;;;20.27;65.58;101571.59;5047382;28;20197;-67
2021/07/12 04:51:00;;;;;;;2.37;1.77;;;;;;;20.24;66.20;101567.28;5040540;28;20566;-67
2021/07/12 04:53:28;;;;;;;1.70;1.60;;;;;;;20.29;65.75;101577.75;5042744;28;20306;-67
2021/07/12 04:55:56;;;;;;;1.87;1.50;;;;;;;20.38;65.04;101580.44;5039193;28;20233;-67
2021/07/12 04:58:26;;;;;;;1.60;1.50;;;;;;;20.44;64.80;101576.28;5042589;28;20224;-66
2021/07/12 05:00:56;;;;;;;2.10;1.60;;;;;;;20.50;64.99;101578.44;5033438;28;20194;-66
2021/07/12 05:03:31;;;;;;;2.03;1.83;;;;;;;20.52;64.53;101573.72;5039717;28;20244;-67
2021/07/12 05:05:59;;;;;;;3.37;1.73;;;;;;;20.54;64.79;101570.84;5039675;28;20197;-67
2021/07/12 05:08:27;;;;;;;1.70;1.60;;;;;;;20.55;65.53;101572.56;5042900;28;20273;-67
2021/07/12 05:10:55;;;;;;;2.00;1.80;;;;;;;20.64;65.32;101572.50;5046268;28;20252;-67
2021/07/12 05:13:23;;;;;;;1.70;1.60;;;;;;;20.73;64.74;101571.59;5042391;28;20552;-67
2021/07/12 05:15:53;;;;;;;1.90;1.60;;;;;;;20.66;65.46;101548.66;5037716;28;20221;-67
2021/07/12 05:18:21;;;;;;;2.00;1.80;;;;;;;20.91;64.78;101574.41;5039862;28;20302;-67
2021/07/12 05:20:51;;;;;;;1.67;1.57;;;;;;;21.05;65.55;101562.97;5045945;28;20206;-67
2021/07/12 05:23:19;;;;;;;4.13;1.70;;;;;;;21.16;64.80;101572.00;5042375;28;20228;-68
2021/07/12 05:25:47;;;;;;;2.30;1.60;;;;;;;21.30;65.13;101568.78;5042193;28;20201;-67
2021/07/12 05:28:15;;;;;;;1.70;1.60;;;;;;;21.31;64.35;101567.75;5049103;28;20195;-68
2021/07/12 05:30:43;;;;;;;1.80;1.70;;;;;;;21.30;63.51;101568.78;5042317;28;20211;-65
2021/07/12 05:33:13;;;;;;;2.97;1.63;;;;;;;21.26;62.79;101553.69;5037461;28;20234;-67
2021/07/12 05:35:41;;;;;;;2.60;1.53;;;;;;;21.38;63.24;101560.66;5043955;28;20683;-67
2021/07/12 05:38:10;;;;;;;2.20;1.70;;;;;;;21.57;62.42;101557.81;5042314;28;20198;-70
2021/07/12 05:40:38;;;;;;;2.53;1.43;;;;;;;21.78;62.06;101551.19;5039901;28;20216;-70
2021/07/12 05:43:08;;;;;;;1.80;1.50;;;;;;;21.91;60.16;101551.63;5040774;28;20711;-69
2021/07/12 05:45:36;;;;;;;1.60;1.50;;;;;;;21.91;58.99;101547.00;5038656;28;20210;-69
2021/07/12 05:48:05;;;;;;;1.53;1.43;;;;;;;22.22;59.76;101549.34;5045126;28;20578;-69
2021/07/12 05:50:34;;;;;;;1.70;1.50;;;;;;;22.25;58.70;101549.88;5038047;28;20651;-70
2021/07/12 05:53:03;;;;;;;4.07;1.70;;;;;;;22.50;58.36;101558.25;5049197;28;20205;-69
2021/07/12 05:55:31;;;;;;;1.73;1.40;;;;;;;22.80;57.79;101563.22;5035623;28;20713;-69
2021/07/12 05:57:59;;;;;;;1.70;1.60;;;;;;;23.08;58.08;101552.94;5042447;28;20200;-69
2021/07/12 06:00:27;;;;;;;1.60;1.50;;;;;;;22.88;57.13;101554.22;5037832;28;20207;-69
2021/07/12 06:02:56;;;;;;;2.63;1.80;;;;;;;23.02;56.76;101553.59;5041399;28;20186;-69
2021/07/12 06:05:24;;;;;;;1.63;1.50;;;;;;;23.25;56.63;101559.31;5038690;28;20206;-69
2021/07/12 06:07:53;;;;;;;2.50;1.33;;;;;;;23.40;56.36;101556.81;5043274;28;20193;-69
2021/07/12 06:10:21;;;;;;;1.67;1.50;;;;;;;23.28;55.70;101559.00;5045559;28;20206;-69
2021/07/12 06:12:49;;;;;;;1.37;1.27;;;;;;;23.35;55.34;101560.06;5033576;28;20206;-69
2021/07/12 06:15:17;;;;;;;1.40;1.30;;;;;;;23.59;54.43;101566.66;5034544;28;20202;-70
2021/07/12 06:17:46;;;;;;;1.63;1.40;;;;;;;23.70;56.00;101564.44;5039224;28;20210;-70
2021/07/12 06:20:16;;;;;;;2.00;1.50;;;;;;;24.08;54.20;101562.06;5033478;28;20286;-68
2021/07/12 06:22:44;;;;;;;1.63;1.33;;;;;;;24.19;54.21;101558.13;5035961;28;20225;-68
2021/07/12 06:25:16;;;;;;;3.47;1.60;;;;;;;24.31;52.72;101571.34;5033468;28;20195;-69
2021/07/12 06:27:44;;;;;;;2.00;1.60;;;;;;;24.46;52.64;101565.97;5041635;28;20209;-69
2021/07/12 06:30:14;;;;;;;1.67;1.57;;;;;;;24.67;52.36;101558.03;5033340;28;20199;-68
2021/07/12 06:32:42;;;;;;;2.13;1.80;;;;;;;24.70;51.88;101548.59;5036321;28;20249;-68
2021/07/12 06:35:12;;;;;;;1.83;1.67;;;;;;;25.32;51.15;101557.81;5032918;28;20195;-68
2021/07/12 06:37:40;;;;;;;1.42;1.33;;;;;;;25.54;49.45;101556.13;5036159;28;20281;-69
2021/07/12 06:40:09;;;;;;;1.73;1.60;;;;;;;25.37;50.35;101554.50;5043380;28;20206;-69
2021/07/12 06:42:39;;;;;;;1.70;1.60;;;;;;;25.13;50.12;101560.16;5034199;28;20207;-70
2021/07/12 06:45:08;;;;;;;1.60;1.50;;;;;;;25.12;51.20;101567.56;5033008;28;20214;-70
2021/07/12 06:47:37;;;;;;;1.58;1.40;;;;;;;25.26;50.45;101560.44;5032607;28;20293;-70
2021/07/12 06:50:07;;;;;;;1.60;1.50;;;;;;;25.47;50.80;101565.31;5034605;28;20268;-70
2021/07/12 06:52:38;;;;;;;1.40;1.30;;;;;;;25.60;49.64;101563.66;5031978;28;20786;-69
2021/07/12 06:55:06;;;;;;;1.80;1.52;;;;;;;25.85;48.45;101563.53;5035718;28;20206;-69
2021/07/12 06:57:34;;;;;;;2.05;1.65;;;;;;;26.19;47.94;101558.41;5030904;28;20225;-69
2021/07/12 07:00:06;;;;;;;1.40;1.30;;;;;;;26.32;47.23;101560.50;5031837;28;20198;-69
2021/07/12 07:02:38;;;;;;;1.63;1.52;;;;;;;26.53;48.65;101552.41;5029661;28;20200;-69
2021/07/12 07:05:09;;;;;;;1.30;1.30;;;;;;;26.53;47.78;101559.81;5035146;28;20202;-69
2021/07/12 07:07:38;;;;;;;1.90;1.40;;;;;;;26.66;47.70;101561.94;5031579;28;20606;-69
2021/07/12 07:10:08;;;;;;;2.28;1.40;;;;;;;27.10;48.05;101559.19;5041688;28;20213;-69
2021/07/12 07:12:39;;;;;;;2.95;1.50;;;;;;;27.31;47.36;101559.25;5033150;28;20256;-69
2021/07/12 07:15:10;;;;;;;2.45;1.83;;;;;;;27.85;46.84;101547.75;5035673;28;20277;-69
2021/07/12 07:17:38;;;;;;;1.88;1.60;;;;;;;28.25;46.43;101551.78;5041420;28;20257;-70
2021/07/12 07:20:08;;;;;;;1.42;1.33;;;;;;;28.66;45.85;101551.84;5035931;28;20202;-70
2021/07/12 07:22:36;;;;;;;1.77;1.67;;;;;;;28.99;45.43;101552.06;5038526;28;20197;-69
2021/07/12 07:25:05;;;;;;;4.82;1.50;;;;;;;29.37;44.59;101560.72;5031593;28;20203;-67
2021/07/12 07:27:42;;;;;;;3.00;1.48;;;;;;;29.59;44.12;101555.94;5039067;28;20225;-69
2021/07/12 07:30:14;;;;;;;2.05;1.50;;;;;;;29.83;43.85;101559.19;5031652;28;20210;-69
2021/07/12 07:32:42;;;;;;;1.48;1.30;;;;;;;29.76;41.77;101563.88;5034199;28;20743;-69
2021/07/12 07:35:12;;;;;;;2.50;1.80;;;;;;;29.59;42.67;101549.56;5031523;28;20268;-69
2021/07/12 07:37:40;;;;;;;1.40;1.40;;;;;;;29.65;43.00;101557.00;5037873;28;20466;-69
2021/07/12 07:40:09;;;;;;;1.50;1.40;;;;;;;30.11;42.79;101547.97;5031025;28;20740;-69
2021/07/12 07:42:38;;;;;;;1.90;1.30;;;;;;;30.49;42.45;101549.00;5036907;28;20221;-69
2021/07/12 07:45:08;;;;;;;3.75;1.52;;;;;;;30.76;42.03;101548.97;5036598;28;20225;-70
2021/07/12 07:47:38;;;;;;;1.45;1.35;;;;;;;30.78;39.76;101546.84;5031934;28;20195;-70
2021/07/12 07:50:20;;;;;;;2.30;1.50;;;;;;;31.01;41.30;101552.75;5029286;28;20410;-69
2021/07/12 07:52:49;;;;;;;1.20;1.20;;;;;;;31.41;40.67;101541.50;5032645;28;20202;-70
2021/07/12 07:55:17;;;;;;;1.30;1.05;;;;;;;31.69;40.09;101550.28;5032508;28;20689;-70
2021/07/12 07:57:45;;;;;;;1.88;1.45;;;;;;;31.93;40.33;101545.03;5030778;28;20222;-70
2021/07/12 08:00:17;;;;;;;1.40;1.30;;;;;;;32.16;39.97;101558.34;5033691;28;20613;-70
2021/07/12 08:02:46;;;;;;;2.15;1.45;;;;;;;32.20;39.32;101557.66;5030140;28;20211;-69
2021/07/12 08:05:15;;;;;;;1.30;1.20;;;;;;;32.32;38.74;101555.84;5033523;28;20206;-69
2021/07/12 08:07:44;;;;;;;2.80;1.38;;;;;;;32.19;38.05;101558.72;5030880;28;20666;-70
2021/07/12 08:10:14;;;;;;;1.40;1.30;;;;;;;32.53;38.07;101562.09;5046485;28;20300;-70
2021/07/12 08:12:43;;;;;;;1.40;1.20;;;;;;;32.77;37.87;101558.41;5037336;28;20206;-70
2021/07/12 08:15:13;;;;;;;1.30;1.30;;;;;;;32.92;37.18;101561.69;5034575;28;20281;-70
2021/07/12 08:17:41;;;;;;;1.35;1.20;;;;;;;33.09;36.83;101561.06;5036164;28;20257;-70
2021/07/12 08:20:13;;;;;;;1.42;1.33;;;;;;;32.97;37.04;101563.78;5034567;28;20206;-69
2021/07/12 08:22:50;;;;;;;1.40;1.30;;;;;;;33.27;36.90;101563.81;5033928;28;20202;-69
2021/07/12 08:25:19;;;;;;;1.40;1.20;;;;;;;32.55;35.82;101568.28;5033823;28;20206;-69
2021/07/12 08:27:47;;;;;;;1.60;1.50;;;;;;;32.83;36.52;101523.28;5033550;28;20280;-69
2021/07/12 08:30:16;;;;;;;1.42;1.20;;;;;;;33.12;36.39;101557.81;5038326;28;20226;-69
2021/07/12 08:32:45;;;;;;;1.42;1.27;;;;;;;33.30;35.89;101553.06;5041128;28;20229;-69
2021/07/12 08:35:16;;;;;;;1.40;1.30;;;;;;;33.08;35.11;101549.09;5034040;28;20198;-69
2021/07/12 08:37:49;;;;;;;1.25;1.17;;;;;;;33.12;36.11;101550.31;5041283;28;20221;-69
2021/07/12 08:40:19;;;;;;;1.58;1.48;;;;;;;32.85;35.78;101552.56;5037929;28;20199;-70
2021/07/12 08:42:49;;;;;;;2.33;1.40;;;;;;;32.68;35.64;101555.06;5044855;28;20197;-69
2021/07/12 08:45:17;;;;;;;1.63;1.30;;;;;;;32.84;35.50;101559.22;5033568;28;20198;-69
2021/07/12 08:47:45;;;;;;;1.65;1.30;;;;;;;32.97;35.71;101563.78;5035183;28;20829;-69
2021/07/12 08:50:16;;;;;;;1.23;1.23;;;;;;;31.95;34.36;101554.84;5034476;28;20197;-70
2021/07/12 08:52:44;;;;;;;1.20;1.20;;;;;;;32.46;35.66;101558.53;5034367;28;20210;-70
2021/07/12 08:55:13;;;;;;;1.35;1.25;;;;;;;32.58;34.96;101538.06;5034967;28;20429;-69
2021/07/12 08:57:55;;;;;;;2.05;1.30;;;;;;;33.10;35.68;101552.50;5033316;28;20222;-69
2021/07/12 09:00:36;;;;;;;3.67;1.17;;;;;;;33.13;33.34;101556.75;5038378;28;20195;-69
2021/07/12 09:03:25;;;;;;;1.90;1.38;;;;;;;32.93;34.57;101555.03;5035776;28;20202;-69
2021/07/12 09:06:04;;;;;;;1.58;1.48;;;;;;;32.81;35.12;101559.69;5044802;28;20282;-70
2021/07/12 09:08:46;;;;;;;1.70;1.50;;;;;;;33.08;34.50;101556.59;5044871;28;20209;-69
2021/07/12 09:11:18;;;;;;;1.80;1.20;;;;;;;33.19;35.55;101567.78;5033453;28;20198;-69
2021/07/12 09:13:52;;;;;;;1.30;1.30;;;;;;;32.89;33.41;101561.31;5038331;28;20196;-69
2021/07/12 09:16:38;;;;;;;2.20;1.27;;;;;;;33.55;35.33;101555.75;5032947;28;20205;-69
2021/07/12 09:19:17;;;;;;;1.13;1.13;;;;;;;33.77;34.44;101558.88;5040562;28;20222;-70
2021/07/12 09:21:49;;;;;;;1.40;1.30;;;;;;;33.93;33.89;101561.00;5033110;28;20202;-69
2021/07/12 09:24:21;;;;;;;1.48;1.38;;;;;;;33.95;33.63;101549.59;5036290;28;20206;-69
2021/07/12 09:26:56;;;;;;;1.42;1.33;;;;;;;33.87;33.27;101564.75;5041975;28;20806;-70
2021/07/12 09:29:26;;;;;;;1.40;1.30;;;;;;;34.14;33.96;101564.31;5046824;28;20812;-70
2021/07/12 09:31:54;;;;;;;1.95;1.35;;;;;;;34.50;34.34;101568.88;5036371;28;20226;-70
2021/07/12 09:34:25;;;;;;;1.48;1.40;;;;;;;34.40;32.84;101574.22;5036591;28;20255;-69
2021/07/12 09:36:55;;;;;;;1.20;1.20;;;;;;;34.48;32.98;101571.91;5032361;28;20203;-70
2021/07/12 09:39:32;;;;;;;1.30;1.30;;;;;;;34.67;32.36;101564.28;5035970;28;20244;-68
2021/07/12 09:42:03;;;;;;;1.30;1.20;;;;;;;34.97;33.05;101566.09;5040382;28;20657;-68
2021/07/12 09:44:33;;;;;;;1.20;1.20;;;;;;;34.81;32.17;101564.84;5039063;28;20217;-68
2021/07/12 09:47:07;;;;;;;1.58;1.40;;;;;;;34.64;32.58;101564.75;5031573;28;20209;-69
2021/07/12 09:49:36;;;;;;;1.50;1.40;;;;;;;34.91;32.11;101561.50;5035125;28;20197;-69
2021/07/12 09:52:08;;;;;;;2.28;1.30;;;;;;;35.15;32.74;101555.56;5043397;28;20183;-69
2021/07/12 09:54:39;;;;;;;1.38;1.27;;;;;;;35.07;31.94;101557.91;5035922;28;20285;-69
2021/07/12 09:57:11;;;;;;;1.40;1.30;;;;;;;35.28;32.35;101565.63;5033135;28;20649;-69
2021/07/12 09:59:53;;;;;;;1.25;1.25;;;;;;;35.28;30.75;101548.88;5035029;28;20701;-69
2021/07/12 10:02:23;;;;;;;1.48;1.38;;;;;;;35.18;32.86;101545.84;5042941;28;20240;-69
2021/07/12 10:04:57;;;;;;;1.50;1.40;;;;;;;35.25;31.96;101552.16;5040007;28;20219;-69
2021/07/12 10:07:27;;;;;;;1.30;1.30;;;;;;;34.83;31.83;101544.00;5034049;28;20228;-69
2021/07/12 10:09:56;;;;;;;1.25;1.13;;;;;;;35.19;32.85;101539.16;5042306;28;20297;-69
2021/07/12 10:12:24;;;;;;;1.38;1.35;;;;;;;35.00;32.24;101534.88;5057315;28;20778;-69
2021/07/12 10:14:54;;;;;;;1.45;1.35;;;;;;;33.95;31.81;101536.50;5049219;28;20201;-69
2021/07/12 10:17:23;;;;;;;1.40;1.30;;;;;;;33.54;32.37;101528.97;5053142;28;20248;-69
2021/07/12 10:19:56;;;;;;;1.30;1.20;;;;;;;33.62;31.93;101531.44;5048993;28;20232;-69
2021/07/12 10:22:25;;;;;;;3.03;1.30;;;;;;;33.04;31.75;101512.47;5043904;28;20216;-69
2021/07/12 10:25:05;;;;;;;1.98;1.27;;;;;;;33.45;32.15;101516.47;5039746;28;20745;-69
2021/07/12 10:27:46;;;;;;;1.30;1.30;;;;;;;32.58;33.46;101476.00;5048729;28;20544;-69
2021/07/12 10:30:25;;;;;;;4.97;1.30;;;;;;;33.15;32.53;101521.16;5053112;28;20377;-70
2021/07/12 10:32:55;;;;;;;1.35;1.25;;;;;;;33.42;33.47;101516.94;5043754;28;20253;-68
2021/07/12 10:35:41;;;;;;;1.40;1.20;;;;;;;32.90;31.81;101513.75;5047978;28;20204;-68
2021/07/12 10:38:11;;;;;;;1.40;1.30;;;;;;;33.20;32.90;101515.72;5039806;28;20241;-69
2021/07/12 10:40:51;;;;;;;1.20;1.20;;;;;;;33.40;33.49;101518.28;5046436;28;20209;-68
2021/07/12 10:43:48;;;;;;;1.38;1.27;;;;;;;32.95;32.19;101480.47;5047211;28;20202;-68
2021/07/12 10:46:39;;;;;;;1.15;1.15;;;;;;;32.68;32.18;101506.91;5064817;28;20550;-68
2021/07/12 10:49:40;;;;;;;1.27;1.25;;;;;;;33.20;33.32;101515.72;5046671;28;20777;-68
2021/07/12 10:52:43;;;;;;;1.00;1.00;;;;;;;33.42;32.39;101518.88;5041487;28;20201;-68
2021/07/12 10:55:12;;;;;;;1.58;1.30;;;;;;;33.67;34.50;101515.91;5049313;28;20676;-69
2021/07/12 10:57:42;;;;;;;1.45;1.40;;;;;;;33.21;33.06;101514.63;5041070;28;20212;-68
2021/07/12 11:00:12;;;;;;;1.83;1.35;;;;;;;32.51;33.06;101515.03;5038285;28;20233;-68
2021/07/12 11:02:41;;;;;;;1.95;1.27;;;;;;;33.00;35.37;101471.44;5039940;28;20289;-67
2021/07/12 11:05:15;;;;;;;1.45;1.30;;;;;;;33.57;35.73;101503.41;5039510;28;20186;-67
2021/07/12 11:07:46;;;;;;;1.10;1.10;;;;;;;32.92;33.60;101503.22;5040509;28;20297;-67
2021/07/12 11:10:23;;;;;;;1.75;1.30;;;;;;;32.52;33.58;101501.97;5039355;28;20210;-67
2021/07/12 11:12:58;;;;;;;1.30;1.30;;;;;;;32.64;33.25;101491.75;5042312;28;20201;-68
2021/07/12 11:15:31;;;;;;;1.38;1.27;;;;;;;32.84;34.60;101492.41;5046085;28;20209;-67
2021/07/12 11:18:04;;;;;;;1.48;1.30;;;;;;;32.86;33.86;101489.41;5043325;28;20196;-67
2021/07/12 11:20:45;;;;;;;1.52;1.42;;;;;;;32.84;33.76;101486.84;5044950;28;20226;-66
2021/07/12 11:23:39;;;;;;;1.10;1.10;;;;;;;32.70;33.14;101486.09;5055973;28;20557;-67
2021/07/12 11:26:52;;;;;;;1.15;1.15;;;;;;;32.85;32.64;101482.13;5050424;28;20574;-67
2021/07/12 11:29:26;;;;;;;1.20;1.20;;;;;;;32.67;34.06;101480.16;5043543;28;20605;-67
2021/07/12 11:31:56;;;;;;;2.05;1.33;;;;;;;33.01;34.39;101487.91;5042822;28;20256;-68
2021/07/12 11:34:28;;;;;;;1.30;1.30;;;;;;;33.07;34.40;101488.91;5044285;28;20202;-67
2021/07/12 11:36:59;;;;;;;1.40;1.30;;;;;;;32.36;33.76;101482.00;5044641;28;20193;-67
2021/07/12 11:39:40;;;;;;;1.48;1.40;;;;;;;32.49;35.84;101482.97;5049625;28;20224;-67
2021/07/12 11:42:17;;;;;;;1.38;1.30;;;;;;;32.48;32.39;101472.91;5049727;28;20195;-67
2021/07/12 11:44:49;;;;;;;1.63;1.52;;;;;;;31.94;32.99;101478.09;5048008;28;20292;-67
2021/07/12 11:47:20;;;;;;;2.15;1.38;;;;;;;31.76;34.22;101470.53;5043732;28;20233;-67